createdAt,value
2019-05-26T00:02:04.290Z,100082.00
2019-05-26T00:04:40.061Z,100091.00
2019-05-26T00:07:09.544Z,100089.00
2019-05-26T00:09:45.954Z,100083.00
2019-05-26T00:12:16.093Z,100084.00
2019-05-26T00:14:51.914Z,100082.00
2019-05-26T00:17:28.278Z,100082.00
2019-05-26T00:20:14.958Z,100076.00
2019-05-26T00:22:44.414Z,100067.00
2019-05-26T00:25:21.279Z,100070.00
2019-05-26T00:27:57.826Z,100079.00
2019-05-26T00:30:34.440Z,100068.00
2019-05-26T00:33:03.996Z,100065.00
2019-05-26T00:35:40.258Z,100069.00
2019-05-26T00:38:16.344Z,100057.00
2019-05-26T00:40:46.361Z,100063.00
2019-05-26T00:43:22.441Z,100059.00
2019-05-26T00:45:58.208Z,100054.00
2019-05-26T00:48:27.793Z,100055.00
2019-05-26T00:51:04.307Z,100059.00
2019-05-26T00:53:33.889Z,100087.00
2019-05-26T00:56:16.851Z,100054.00
2019-05-26T00:58:46.384Z,100050.00
2019-05-26T01:01:21.884Z,100049.00
2019-05-26T01:03:57.508Z,100048.00
2019-05-26T01:06:34.148Z,100042.00
2019-05-26T01:09:04.806Z,100039.00
2019-05-26T01:11:40.554Z,100036.00
2019-05-26T01:14:10.145Z,99907.00
2019-05-26T01:16:46.749Z,100035.00
2019-05-26T01:19:22.789Z,100044.00
2019-05-26T01:22:05.739Z,100036.00
2019-05-26T01:24:35.263Z,99833.00
2019-05-26T01:27:11.935Z,100032.00
2019-05-26T01:29:48.369Z,100028.00
2019-05-26T01:32:17.895Z,100026.00
2019-05-26T01:34:54.554Z,100024.00
2019-05-26T01:37:24.311Z,100024.00
2019-05-26T01:40:00.339Z,100032.00
2019-05-26T01:42:29.799Z,100033.00
2019-05-26T01:44:59.318Z,100041.00
2019-05-26T01:47:35.269Z,100048.00
2019-05-26T01:50:11.887Z,100048.00
2019-05-26T01:52:48.379Z,100051.00
2019-05-26T01:55:17.846Z,100057.00
2019-05-26T01:57:53.684Z,100054.00
2019-05-26T02:00:23.551Z,100049.00
2019-05-26T02:03:00.142Z,100053.00
2019-05-26T02:05:29.757Z,100050.00
2019-05-26T02:08:06.375Z,100046.00
2019-05-26T02:10:35.888Z,100054.00
2019-05-26T02:13:12.238Z,100048.00
2019-05-26T02:15:47.971Z,100047.00
2019-05-26T02:18:23.564Z,100050.00
2019-05-26T02:21:06.618Z,100046.00
2019-05-26T02:23:42.634Z,100038.00
2019-05-26T02:26:19.074Z,100040.00
2019-05-26T02:28:55.604Z,100033.00
2019-05-26T02:31:25.055Z,100041.00
2019-05-26T02:34:01.477Z,100047.00
2019-05-26T02:36:37.677Z,100085.00
2019-05-26T02:39:10.520Z,100051.00
2019-05-26T02:41:46.830Z,100046.00
2019-05-26T02:44:16.279Z,100043.00
2019-05-26T02:46:52.276Z,100044.00
2019-05-26T02:49:21.828Z,100042.00
2019-05-26T02:51:51.277Z,100037.00
2019-05-26T02:54:27.587Z,100037.00
2019-05-26T02:57:03.875Z,100037.00
2019-05-26T02:59:35.045Z,100042.00
2019-05-26T03:02:05.110Z,100040.00
2019-05-26T03:04:41.830Z,100053.00
2019-05-26T03:07:20.190Z,100054.00
2019-05-26T03:09:50.965Z,100044.00
2019-05-26T03:12:37.524Z,100052.00
2019-05-26T03:15:16.993Z,100049.00
2019-05-26T03:17:49.882Z,100086.00
2019-05-26T03:20:26.941Z,100056.00
2019-05-26T03:23:05.549Z,100060.00
2019-05-26T03:25:43.963Z,100050.00
2019-05-26T03:28:13.476Z,100046.00
2019-05-26T03:30:49.122Z,100051.00
2019-05-26T03:33:24.733Z,100047.00
2019-05-26T03:36:01.193Z,100048.00
2019-05-26T03:38:30.658Z,100049.00
2019-05-26T03:41:06.311Z,100050.00
2019-05-26T03:43:42.523Z,100054.00
2019-05-26T03:46:18.378Z,100062.00
2019-05-26T03:49:01.948Z,100047.00
2019-05-26T03:51:31.405Z,100057.00
2019-05-26T03:54:07.972Z,100053.00
2019-05-26T03:56:37.494Z,100058.00
2019-05-26T03:59:13.215Z,100056.00
2019-05-26T04:01:42.671Z,100053.00
2019-05-26T04:04:18.274Z,100053.00
2019-05-26T04:06:54.298Z,100045.00
2019-05-26T04:09:30.680Z,100049.00
2019-05-26T04:12:07.185Z,100048.00
2019-05-26T04:14:43.356Z,100042.00
2019-05-26T04:17:12.879Z,100037.00
2019-05-26T04:19:50.363Z,100032.00
2019-05-26T04:22:32.970Z,100032.00
2019-05-26T04:25:09.573Z,100011.00
2019-05-26T04:27:39.028Z,100039.00
2019-05-26T04:30:15.980Z,100032.00
2019-05-26T04:32:45.501Z,100030.00
2019-05-26T04:35:22.203Z,100025.00
2019-05-26T04:37:51.648Z,100038.00
2019-05-26T04:40:28.234Z,100037.00
2019-05-26T04:42:57.820Z,100027.00
2019-05-26T04:45:35.823Z,100033.00
2019-05-26T04:48:06.022Z,100036.00
2019-05-26T04:50:48.412Z,100041.00
2019-05-26T04:53:17.938Z,100037.00
2019-05-26T04:55:53.578Z,100041.00
2019-05-26T04:58:23.179Z,100033.00
2019-05-26T05:00:59.520Z,100031.00
2019-05-26T05:03:29.050Z,100023.00
2019-05-26T05:06:05.062Z,100018.00
2019-05-26T05:08:34.580Z,100022.00
2019-05-26T05:11:11.178Z,100018.00
2019-05-26T05:13:40.657Z,100015.00
2019-05-26T05:16:16.526Z,100022.00
2019-05-26T05:18:45.983Z,100017.00
2019-05-26T05:21:22.611Z,100016.00
2019-05-26T05:23:59.114Z,100003.00
2019-05-26T05:26:35.144Z,100003.00
2019-05-26T05:29:04.928Z,99998.00
2019-05-26T05:31:34.438Z,99998.00
2019-05-26T05:34:11.343Z,99992.00
2019-05-26T05:36:40.865Z,99998.00
2019-05-26T05:39:16.528Z,99997.00
2019-05-26T05:41:59.473Z,99996.00
2019-05-26T05:44:35.520Z,99991.00
2019-05-26T05:47:05.659Z,99994.00
2019-05-26T05:49:48.332Z,99994.00
2019-05-26T05:52:17.792Z,99979.00
2019-05-26T05:54:53.952Z,99973.00
2019-05-26T05:57:23.476Z,99985.00
2019-05-26T06:00:06.249Z,99984.00
2019-05-26T06:02:35.763Z,99968.00
2019-05-26T06:05:07.305Z,99982.00
2019-05-26T06:07:43.318Z,99981.00
2019-05-26T06:10:13.775Z,99985.00
2019-05-26T06:12:50.462Z,99985.00
2019-05-26T06:15:20.126Z,99977.00
2019-05-26T06:17:56.050Z,99983.00
2019-05-26T06:20:32.669Z,99974.00
2019-05-26T06:23:09.044Z,99978.00
2019-05-26T06:25:51.476Z,99980.00
2019-05-26T06:28:27.090Z,99978.00
2019-05-26T06:30:56.546Z,99984.00
2019-05-26T06:33:32.993Z,99967.00
2019-05-26T06:36:02.644Z,99984.00
2019-05-26T06:38:38.847Z,99968.00
2019-05-26T06:41:08.512Z,99978.00
2019-05-26T06:43:45.011Z,99970.00
2019-05-26T06:46:14.527Z,99965.00
2019-05-26T06:48:44.149Z,99965.00
2019-05-26T06:51:20.564Z,99962.00
2019-05-26T06:53:56.264Z,99959.00
2019-05-26T06:56:31.948Z,99962.00
2019-05-26T06:59:02.969Z,99963.00
2019-05-26T07:01:38.855Z,99962.00
2019-05-26T07:04:15.402Z,99967.00
2019-05-26T07:06:44.948Z,99971.00
2019-05-26T07:09:21.429Z,99965.00
2019-05-26T07:11:59.641Z,99961.00
2019-05-26T07:14:28.430Z,99966.00
2019-05-26T07:17:05.210Z,99968.00
2019-05-26T07:19:41.630Z,99952.00
2019-05-26T07:22:11.302Z,99955.00
2019-05-26T07:24:47.725Z,99952.00
2019-05-26T07:27:23.895Z,99965.00
2019-05-26T07:29:59.945Z,99971.00
2019-05-26T07:32:29.460Z,99959.00
2019-05-26T07:35:05.810Z,99975.00
2019-05-26T07:37:35.470Z,99975.00
2019-05-26T07:40:13.353Z,99977.00
2019-05-26T07:42:42.792Z,99971.00
2019-05-26T07:45:19.605Z,99963.00
2019-05-26T07:47:49.120Z,99969.00
2019-05-26T07:50:18.775Z,99961.00
2019-05-26T07:52:55.477Z,99967.00
2019-05-26T07:55:32.833Z,99967.00
2019-05-26T07:58:09.296Z,99977.00
2019-05-26T08:00:38.972Z,99974.00
2019-05-26T08:03:15.494Z,99975.00
2019-05-26T08:05:44.961Z,99972.00
2019-05-26T08:08:14.542Z,99988.00
2019-05-26T08:10:50.872Z,99981.00
2019-05-26T08:13:26.769Z,99984.00
2019-05-26T08:15:56.685Z,99971.00
2019-05-26T08:18:26.144Z,99974.00
2019-05-26T08:21:01.776Z,99982.00
2019-05-26T08:23:38.370Z,99977.00
2019-05-26T08:26:14.308Z,99976.00
2019-05-26T08:28:50.901Z,99979.00
2019-05-26T08:31:20.489Z,99979.00
2019-05-26T08:33:56.573Z,99982.00
2019-05-26T08:36:26.165Z,99981.00
2019-05-26T08:39:02.886Z,99979.00
2019-05-26T08:41:32.335Z,99984.00
2019-05-26T08:44:08.148Z,99988.00
2019-05-26T08:46:37.807Z,99994.00
2019-05-26T08:49:07.426Z,99991.00
2019-05-26T08:51:50.198Z,99997.00
2019-05-26T08:54:19.886Z,99983.00
2019-05-26T08:56:56.056Z,99974.00
2019-05-26T08:59:32.686Z,99972.00
2019-05-26T09:02:09.390Z,99956.00
2019-05-26T09:04:45.267Z,99961.00
2019-05-26T09:07:14.811Z,99962.00
2019-05-26T09:09:44.381Z,99961.00
2019-05-26T09:12:20.072Z,99960.00
2019-05-26T09:14:55.806Z,99964.00
2019-05-26T09:17:25.389Z,99951.00
2019-05-26T09:20:01.346Z,99943.00
2019-05-26T09:22:37.517Z,99942.00
2019-05-26T09:25:07.882Z,99950.00
2019-05-26T09:27:50.492Z,99948.00
2019-05-26T09:30:26.854Z,99949.00
2019-05-26T09:33:02.525Z,99942.00
2019-05-26T09:35:32.216Z,99936.00
2019-05-26T09:38:08.710Z,99939.00
2019-05-26T09:40:38.378Z,99927.00
2019-05-26T09:43:16.542Z,99928.00
2019-05-26T09:45:52.495Z,99943.00
2019-05-26T09:48:21.945Z,99925.00
2019-05-26T09:50:58.422Z,99922.00
2019-05-26T09:53:35.003Z,99927.00
2019-05-26T09:56:11.503Z,99923.00
2019-05-26T09:58:47.422Z,99925.00
2019-05-26T10:01:23.410Z,99926.00
2019-05-26T10:03:52.937Z,99920.00
2019-05-26T10:06:22.395Z,99927.00
2019-05-26T10:08:58.792Z,99913.00
2019-05-26T10:11:28.331Z,99910.00
2019-05-26T10:14:05.385Z,99911.00
2019-05-26T10:16:41.628Z,99915.00
2019-05-26T10:19:17.326Z,99922.00
2019-05-26T10:21:53.091Z,99921.00
2019-05-26T10:24:22.547Z,99911.00
2019-05-26T10:27:05.772Z,99914.00
2019-05-26T10:29:48.513Z,99910.00
2019-05-26T10:32:18.153Z,99912.00
2019-05-26T10:34:55.210Z,99917.00
2019-05-26T10:37:24.705Z,99960.00
2019-05-26T10:40:00.527Z,99919.00
2019-05-26T10:42:30.123Z,99931.00
2019-05-26T10:45:06.343Z,99934.00
2019-05-26T10:47:42.802Z,99929.00
2019-05-26T10:50:12.764Z,99936.00
2019-05-26T10:52:48.940Z,99936.00
2019-05-26T10:55:18.533Z,99934.00
2019-05-26T10:57:54.856Z,99929.00
2019-05-26T11:00:32.986Z,99926.00
2019-05-26T11:03:02.135Z,99928.00
2019-05-26T11:05:38.307Z,99937.00
2019-05-26T11:08:07.970Z,99927.00
2019-05-26T11:10:50.567Z,99943.00
2019-05-26T11:13:20.094Z,99924.00
2019-05-26T11:15:56.692Z,99931.00
2019-05-26T11:18:26.375Z,99932.00
2019-05-26T11:21:02.954Z,99924.00
2019-05-26T11:23:38.693Z,99929.00
2019-05-26T11:26:08.355Z,99932.00
2019-05-26T11:28:50.852Z,99908.00
2019-05-26T11:31:20.422Z,99915.00
2019-05-26T11:33:56.870Z,99913.00
2019-05-26T11:36:26.496Z,99916.00
2019-05-26T11:39:02.818Z,99919.00
2019-05-26T11:41:39.290Z,99915.00
2019-05-26T11:44:17.691Z,99907.00
2019-05-26T11:46:48.507Z,99909.00
2019-05-26T11:49:17.985Z,99901.00
2019-05-26T11:51:53.575Z,99896.00
2019-05-26T11:54:23.178Z,99878.00
2019-05-26T11:57:00.398Z,99881.00
2019-05-26T11:59:36.497Z,99877.00
2019-05-26T12:02:06.161Z,99893.00
2019-05-26T12:04:48.616Z,99866.00
2019-05-26T12:07:18.152Z,99867.00
2019-05-26T12:09:54.434Z,99864.00
2019-05-26T12:12:23.885Z,99857.00
2019-05-26T12:15:00.210Z,99857.00
2019-05-26T12:17:29.792Z,99845.00
2019-05-26T12:20:06.004Z,99845.00
2019-05-26T12:22:35.597Z,99837.00
2019-05-26T12:25:17.896Z,99833.00
2019-05-26T12:27:47.416Z,99838.00
2019-05-26T12:30:23.756Z,99837.00
2019-05-26T12:32:53.215Z,99837.00
2019-05-26T12:35:31.564Z,99829.00
2019-05-26T12:38:01.090Z,99831.00
2019-05-26T12:40:30.675Z,99827.00
2019-05-26T12:43:07.172Z,99830.00
2019-05-26T12:45:43.119Z,99827.00
2019-05-26T12:48:12.775Z,99827.00
2019-05-26T12:50:42.640Z,99820.00
2019-05-26T12:53:18.716Z,99812.00
2019-05-26T12:55:48.174Z,99820.00
2019-05-26T12:58:30.077Z,99824.00
2019-05-26T13:00:59.607Z,99820.00
2019-05-26T13:03:29.198Z,99817.00
2019-05-26T13:06:05.562Z,99804.00
2019-05-26T13:08:36.625Z,99802.00
2019-05-26T13:11:13.278Z,99801.00
2019-05-26T13:13:42.874Z,99805.00
2019-05-26T13:16:25.565Z,99801.00
2019-05-26T13:18:54.998Z,99796.00
2019-05-26T13:21:38.238Z,99784.00
2019-05-26T13:24:07.823Z,99654.00
2019-05-26T13:26:43.594Z,99789.00
2019-05-26T13:29:13.055Z,99782.00
2019-05-26T13:31:56.297Z,99782.00
2019-05-26T13:34:25.963Z,99779.00
2019-05-26T13:37:02.066Z,99777.00
2019-05-26T13:39:31.577Z,99787.00
2019-05-26T13:42:07.968Z,99788.00
2019-05-26T13:44:37.479Z,99776.00
2019-05-26T13:47:25.389Z,99769.00
2019-05-26T13:49:44.843Z,99778.00
2019-05-26T13:52:23.670Z,99769.00
2019-05-26T13:55:00.204Z,99762.00
2019-05-26T13:57:36.763Z,99761.00
2019-05-26T14:00:16.340Z,99776.00
2019-05-26T14:02:53.052Z,99765.00
2019-05-26T14:05:22.647Z,99765.00
2019-05-26T14:08:01.346Z,99766.00
2019-05-26T14:10:37.224Z,99765.00
2019-05-26T14:13:15.079Z,99777.00
2019-05-26T14:15:50.913Z,99776.00
2019-05-26T14:18:28.362Z,99779.00
2019-05-26T14:21:04.658Z,99781.00
2019-05-26T14:23:34.269Z,99779.00
2019-05-26T14:26:10.492Z,99772.00
2019-05-26T14:28:40.006Z,99768.00
2019-05-26T14:31:16.341Z,99768.00
2019-05-26T14:33:52.260Z,99761.00
2019-05-26T14:36:27.885Z,99762.00
2019-05-26T14:38:57.393Z,99764.00
2019-05-26T14:41:33.757Z,99767.00
2019-05-26T14:44:03.288Z,99760.00
2019-05-26T14:46:39.694Z,99760.00
2019-05-26T14:49:15.876Z,99756.00
2019-05-26T14:51:52.106Z,99763.00
2019-05-26T14:54:28.369Z,99753.00
2019-05-26T14:57:04.713Z,99755.00
2019-05-26T14:59:34.232Z,99750.00
2019-05-26T15:02:10.473Z,99753.00
2019-05-26T15:04:46.432Z,99754.00
2019-05-26T15:07:23.233Z,99742.00
2019-05-26T15:09:52.687Z,99761.00
2019-05-26T15:12:29.308Z,99755.00
2019-05-26T15:15:07.696Z,99759.00
2019-05-26T15:17:37.263Z,99743.00
2019-05-26T15:20:14.609Z,99757.00
2019-05-26T15:22:44.134Z,99760.00
2019-05-26T15:25:21.083Z,99751.00
2019-05-26T15:27:50.545Z,99754.00
2019-05-26T15:30:27.336Z,99752.00
2019-05-26T15:33:09.989Z,99740.00
2019-05-26T15:35:46.474Z,99759.00
2019-05-26T15:38:22.525Z,99761.00
2019-05-26T15:40:58.536Z,99745.00
2019-05-26T15:43:28.126Z,99759.00
2019-05-26T15:45:57.660Z,99742.00
2019-05-26T15:48:33.919Z,99742.00
2019-05-26T15:51:03.521Z,99745.00
2019-05-26T15:53:46.111Z,99740.00
2019-05-26T15:56:22.621Z,99738.00
2019-05-26T15:58:52.148Z,99734.00
2019-05-26T16:01:21.770Z,99730.00
2019-05-26T16:03:57.594Z,99738.00
2019-05-26T16:06:27.128Z,99731.00
2019-05-26T16:09:03.227Z,99741.00
2019-05-26T16:11:32.749Z,99740.00
2019-05-26T16:14:08.500Z,99737.00
2019-05-26T16:16:41.156Z,99737.00
2019-05-26T16:19:15.742Z,99741.00
2019-05-26T16:21:51.576Z,99742.00
2019-05-26T16:24:21.124Z,99730.00
2019-05-26T16:27:00.404Z,99729.00
2019-05-26T16:29:28.543Z,99733.00
2019-05-26T16:32:04.912Z,99734.00
2019-05-26T16:34:40.712Z,99733.00
2019-05-26T16:37:17.141Z,99731.00
2019-05-26T16:39:55.836Z,99727.00
2019-05-26T16:42:30.318Z,99723.00
2019-05-26T16:44:59.843Z,99724.00
2019-05-26T16:47:36.363Z,99723.00
2019-05-26T16:50:15.100Z,99717.00
2019-05-26T16:52:44.552Z,99725.00
2019-05-26T16:55:27.364Z,99728.00
2019-05-26T16:57:56.988Z,99713.00
2019-05-26T17:00:32.844Z,99711.00
2019-05-26T17:03:09.324Z,99718.00
2019-05-26T17:05:38.871Z,99717.00
2019-05-26T17:08:14.585Z,99715.00
2019-05-26T17:10:44.052Z,99721.00
2019-05-26T17:13:19.830Z,99713.00
2019-05-26T17:15:49.299Z,99710.00
2019-05-26T17:18:18.839Z,99719.00
2019-05-26T17:20:55.051Z,99741.00
2019-05-26T17:23:24.718Z,99717.00
2019-05-26T17:26:00.548Z,99714.00
2019-05-26T17:28:30.207Z,99715.00
2019-05-26T17:31:06.721Z,99709.00
2019-05-26T17:33:43.163Z,99713.00
2019-05-26T17:36:25.723Z,99711.00
2019-05-26T17:38:55.333Z,99714.00
2019-05-26T17:41:31.026Z,99719.00
2019-05-26T17:44:07.084Z,99709.00
2019-05-26T17:46:43.767Z,99712.00
2019-05-26T17:49:13.285Z,99708.00
2019-05-26T17:51:44.495Z,99709.00
2019-05-26T17:54:33.949Z,99710.00
2019-05-26T17:57:03.573Z,99715.00
2019-05-26T17:59:33.245Z,99711.00
2019-05-26T18:02:08.751Z,99714.00
2019-05-26T18:04:45.359Z,99707.00
2019-05-26T18:07:21.988Z,99701.00
2019-05-26T18:09:51.524Z,99713.00
2019-05-26T18:12:27.422Z,99699.00
2019-05-26T18:14:56.949Z,99709.00
2019-05-26T18:17:46.399Z,99711.00
2019-05-26T18:20:13.533Z,99707.00
2019-05-26T18:22:49.765Z,99711.00
2019-05-26T18:25:19.409Z,99705.00
2019-05-26T18:27:55.377Z,99707.00
2019-05-26T18:30:25.279Z,99698.00
2019-05-26T18:33:02.613Z,99703.00
2019-05-26T18:35:38.834Z,99707.00
2019-05-26T18:38:15.127Z,99705.00
2019-05-26T18:40:51.975Z,99712.00
2019-05-26T18:43:27.926Z,99705.00
2019-05-26T18:45:57.632Z,99698.00
2019-05-26T18:48:36.053Z,99703.00
2019-05-26T18:51:05.737Z,99707.00
2019-05-26T18:53:42.479Z,99712.00
2019-05-26T18:56:18.824Z,99711.00
2019-05-26T18:58:57.588Z,99720.00
2019-05-26T19:01:27.257Z,99711.00
2019-05-26T19:04:08.072Z,99716.00
2019-05-26T19:06:35.091Z,99712.00
2019-05-26T19:09:13.849Z,99716.00
2019-05-26T19:11:43.519Z,99721.00
2019-05-26T19:14:32.756Z,99720.00
2019-05-26T19:17:09.188Z,99721.00
2019-05-26T19:19:48.594Z,99714.00
2019-05-26T19:22:24.942Z,99721.00
2019-05-26T19:24:54.471Z,99727.00
2019-05-26T19:27:30.368Z,99730.00
2019-05-26T19:30:06.535Z,99714.00
2019-05-26T19:32:36.130Z,99719.00
2019-05-26T19:35:14.603Z,99720.00
2019-05-26T19:37:50.387Z,99717.00
2019-05-26T19:40:27.219Z,99719.00
2019-05-26T19:42:57.913Z,99715.00
2019-05-26T19:45:34.036Z,99712.00
2019-05-26T19:48:03.677Z,99713.00
2019-05-26T19:50:39.731Z,99712.00
2019-05-26T19:53:17.690Z,99705.00
2019-05-26T19:55:47.356Z,99706.00
2019-05-26T19:58:30.368Z,99703.00
2019-05-26T20:01:08.302Z,99703.00
2019-05-26T20:03:38.203Z,99706.00
2019-05-26T20:06:14.445Z,99706.00
2019-05-26T20:08:51.066Z,99712.00
2019-05-26T20:11:27.354Z,99711.00
2019-05-26T20:13:56.981Z,99707.00
2019-05-26T20:16:30.380Z,99700.00
2019-05-26T20:19:04.909Z,99707.00
2019-05-26T20:21:42.228Z,99703.00
2019-05-26T20:24:18.623Z,99705.00
2019-05-26T20:26:48.100Z,99700.00
2019-05-26T20:29:23.913Z,99698.00
2019-05-26T20:31:59.703Z,99704.00
2019-05-26T20:34:31.857Z,99697.00
2019-05-26T20:37:14.589Z,99700.00
2019-05-26T20:39:44.041Z,99702.00
2019-05-26T20:42:20.508Z,99702.00
2019-05-26T20:44:57.230Z,99704.00
2019-05-26T20:47:26.756Z,99704.00
2019-05-26T20:49:56.226Z,99709.00
2019-05-26T20:52:32.060Z,99701.00
2019-05-26T20:55:01.548Z,99700.00
2019-05-26T20:57:37.647Z,99701.00
2019-05-26T21:00:11.517Z,99705.00
2019-05-26T21:02:48.830Z,99701.00
2019-05-26T21:05:19.506Z,99699.00
2019-05-26T21:07:55.964Z,99703.00
2019-05-26T21:10:32.035Z,99700.00
2019-05-26T21:13:08.203Z,99700.00
2019-05-26T21:15:37.801Z,99700.00
2019-05-26T21:18:14.165Z,99702.00
2019-05-26T21:20:45.220Z,99701.00
2019-05-26T21:23:22.731Z,99706.00
2019-05-26T21:25:52.427Z,99713.00
2019-05-26T21:28:28.155Z,99705.00
2019-05-26T21:30:57.747Z,99708.00
2019-05-26T21:33:33.839Z,99708.00
2019-05-26T21:36:09.481Z,99701.00
2019-05-26T21:38:45.539Z,99701.00
2019-05-26T21:41:28.583Z,99706.00
2019-05-26T21:43:58.104Z,99701.00
2019-05-26T21:46:34.849Z,99694.00
2019-05-26T21:49:11.268Z,99694.00
2019-05-26T21:51:40.788Z,99694.00
2019-05-26T21:54:16.751Z,99691.00
2019-05-26T21:56:46.198Z,99682.00
2019-05-26T21:59:22.157Z,99686.00
2019-05-26T22:01:51.614Z,99682.00
2019-05-26T22:04:27.732Z,99678.00
2019-05-26T22:06:57.258Z,99675.00
2019-05-26T22:09:33.444Z,99681.00
2019-05-26T22:12:02.939Z,99671.00
2019-05-26T22:14:39.035Z,99670.00
2019-05-26T22:17:21.814Z,99675.00
2019-05-26T22:19:58.133Z,99666.00
2019-05-26T22:22:33.722Z,99669.00
2019-05-26T22:25:03.515Z,99659.00
2019-05-26T22:27:39.172Z,99656.00
2019-05-26T22:30:10.541Z,99650.00
2019-05-26T22:32:47.013Z,99644.00
2019-05-26T22:35:16.676Z,99650.00
2019-05-26T22:37:53.189Z,99644.00
2019-05-26T22:40:29.068Z,99643.00
2019-05-26T22:43:04.760Z,99643.00
2019-05-26T22:45:41.250Z,99642.00
2019-05-26T22:48:17.054Z,99642.00
2019-05-26T22:50:46.506Z,99644.00
2019-05-26T22:53:22.634Z,99638.00
2019-05-26T22:55:52.201Z,99635.00
2019-05-26T22:58:21.661Z,99629.00
2019-05-26T23:00:57.857Z,99634.00
2019-05-26T23:03:28.958Z,99635.00
2019-05-26T23:06:04.664Z,99629.00
2019-05-26T23:08:34.179Z,99625.00
2019-05-26T23:11:15.987Z,99628.00
2019-05-26T23:13:45.581Z,99625.00
2019-05-26T23:16:21.775Z,99624.00
2019-05-26T23:18:51.296Z,99612.00
2019-05-26T23:21:27.411Z,99611.00
2019-05-26T23:23:56.865Z,99616.00
2019-05-26T23:26:33.472Z,99619.00
2019-05-26T23:29:02.925Z,99614.00
2019-05-26T23:31:39.152Z,99622.00
2019-05-26T23:34:08.592Z,99616.00
2019-05-26T23:36:44.342Z,99617.00
2019-05-26T23:39:20.810Z,99612.00
2019-05-26T23:41:57.173Z,99614.00
2019-05-26T23:44:26.691Z,99621.00
2019-05-26T23:47:09.012Z,99608.00
2019-05-26T23:49:38.535Z,99605.00
2019-05-26T23:52:14.734Z,99599.00
2019-05-26T23:54:44.274Z,99595.00
2019-05-26T23:57:13.786Z,99592.00
2019-05-26T23:59:50.119Z,99590.00
